sensor_id;sensor_type;location;lat;lon;timestamp;temperature;humidity
40670;DHT22;26355;45.528;9.234;2023-02-11T00:00:40;6.90;89.40
40670;DHT22;26355;45.528;9.234;2023-02-11T00:03:06;6.00;88.30
40670;DHT22;26355;45.528;9.234;2023-02-11T00:05:31;7.20;89.50
40670;DHT22;26355;45.528;9.234;2023-02-11T00:07:57;6.20;88.90
40670;DHT22;26355;45.528;9.234;2023-02-11T00:10:23;5.80;88.30
40670;DHT22;26355;45.528;9.234;2023-02-11T00:12:49;6.40;89.50
40670;DHT22;26355;45.528;9.234;2023-02-11T00:15:14;6.00;89.60
40670;DHT22;26355;45.528;9.234;2023-02-11T00:17:40;6.50;89.50
40670;DHT22;26355;45.528;9.234;2023-02-11T00:20:06;9.00;90.50
40670;DHT22;26355;45.528;9.234;2023-02-11T00:22:31;6.00;89.90
40670;DHT22;26355;45.528;9.234;2023-02-11T00:24:57;6.40;90.00
40670;DHT22;26355;45.528;9.234;2023-02-11T00:27:22;6.90;90.30
40670;DHT22;26355;45.528;9.234;2023-02-11T00:29:48;6.70;90.40
40670;DHT22;26355;45.528;9.234;2023-02-11T00:32:13;5.90;90.40
40670;DHT22;26355;45.528;9.234;2023-02-11T00:34:39;4.10;89.90
40670;DHT22;26355;45.528;9.234;2023-02-11T00:37:04;6.50;90.40
40670;DHT22;26355;45.528;9.234;2023-02-11T00:39:30;6.20;90.30
40670;DHT22;26355;45.528;9.234;2023-02-11T00:41:55;6.20;90.60
40670;DHT22;26355;45.528;9.234;2023-02-11T00:44:21;4.80;90.50
40670;DHT22;26355;45.528;9.234;2023-02-11T00:46:46;6.10;90.50
40670;DHT22;26355;45.528;9.234;2023-02-11T00:49:12;7.60;91.00
40670;DHT22;26355;45.528;9.234;2023-02-11T00:51:38;5.40;90.40
40670;DHT22;26355;45.528;9.234;2023-02-11T00:54:04;5.20;90.20
40670;DHT22;26355;45.528;9.234;2023-02-11T00:56:29;6.90;90.80
40670;DHT22;26355;45.528;9.234;2023-02-11T00:58:55;6.70;90.90
40670;DHT22;26355;45.528;9.234;2023-02-11T01:01:20;6.60;91.00
40670;DHT22;26355;45.528;9.234;2023-02-11T01:03:46;6.30;90.90
40670;DHT22;26355;45.528;9.234;2023-02-11T01:06:11;4.80;90.80
40670;DHT22;26355;45.528;9.234;2023-02-11T01:08:37;5.90;91.10
40670;DHT22;26355;45.528;9.234;2023-02-11T01:11:04;6.00;91.70
40670;DHT22;26355;45.528;9.234;2023-02-11T01:13:31;4.50;91.60
40670;DHT22;26355;45.528;9.234;2023-02-11T01:15:56;5.80;91.80
40670;DHT22;26355;45.528;9.234;2023-02-11T01:18:22;5.50;91.60
40670;DHT22;26355;45.528;9.234;2023-02-11T01:25:39;5.40;91.60
40670;DHT22;26355;45.528;9.234;2023-02-11T01:28:05;6.70;92.30
40670;DHT22;26355;45.528;9.234;2023-02-11T01:30:30;5.20;91.80
40670;DHT22;26355;45.528;9.234;2023-02-11T01:32:56;6.80;91.80
40670;DHT22;26355;45.528;9.234;2023-02-11T01:35:21;7.30;91.90
40670;DHT22;26355;45.528;9.234;2023-02-11T01:37:47;5.60;91.70
40670;DHT22;26355;45.528;9.234;2023-02-11T01:40:13;5.10;91.40
40670;DHT22;26355;45.528;9.234;2023-02-11T01:42:39;7.50;91.90
40670;DHT22;26355;45.528;9.234;2023-02-11T01:47:49;7.40;92.10
40670;DHT22;26355;45.528;9.234;2023-02-11T01:50:14;7.00;92.10
40670;DHT22;26355;45.528;9.234;2023-02-11T01:52:40;7.80;92.10
40670;DHT22;26355;45.528;9.234;2023-02-11T01:55:10;5.60;91.30
40670;DHT22;26355;45.528;9.234;2023-02-11T01:57:56;5.60;91.30
40670;DHT22;26355;45.528;9.234;2023-02-11T02:08:06;6.00;91.60
40670;DHT22;26355;45.528;9.234;2023-02-11T02:10:34;5.60;91.30
40670;DHT22;26355;45.528;9.234;2023-02-11T02:13:00;5.90;91.80
40670;DHT22;26355;45.528;9.234;2023-02-11T02:15:27;5.30;91.60
40670;DHT22;26355;45.528;9.234;2023-02-11T02:17:58;5.40;91.80
40670;DHT22;26355;45.528;9.234;2023-02-11T02:20:30;5.40;91.50
40670;DHT22;26355;45.528;9.234;2023-02-11T02:25:29;4.40;91.30
40670;DHT22;26355;45.528;9.234;2023-02-11T02:31:08;5.20;91.20
40670;DHT22;26355;45.528;9.234;2023-02-11T02:36:12;5.30;91.50
40670;DHT22;26355;45.528;9.234;2023-02-11T02:41:21;4.50;91.40
40670;DHT22;26355;45.528;9.234;2023-02-11T02:48:38;5.00;91.70
40670;DHT22;26355;45.528;9.234;2023-02-11T02:58:52;2.60;91.10
40670;DHT22;26355;45.528;9.234;2023-02-11T03:06:15;5.00;92.00
40670;DHT22;26355;45.528;9.234;2023-02-11T03:08:43;5.00;92.20
40670;DHT22;26355;45.528;9.234;2023-02-11T03:11:10;5.80;92.70
40670;DHT22;26355;45.528;9.234;2023-02-11T03:13:36;5.60;92.90
40670;DHT22;26355;45.528;9.234;2023-02-11T03:16:06;6.30;93.00
40670;DHT22;26355;45.528;9.234;2023-02-11T03:18:32;3.90;92.80
40670;DHT22;26355;45.528;9.234;2023-02-11T03:20:58;4.70;93.30
40670;DHT22;26355;45.528;9.234;2023-02-11T03:23:29;5.60;93.80
40670;DHT22;26355;45.528;9.234;2023-02-11T03:28:34;5.60;93.40
40670;DHT22;26355;45.528;9.234;2023-02-11T03:31:11;5.40;93.40
40670;DHT22;26355;45.528;9.234;2023-02-11T03:33:46;3.80;93.00
40670;DHT22;26355;45.528;9.234;2023-02-11T03:36:16;5.20;93.20
40670;DHT22;26355;45.528;9.234;2023-02-11T03:38:46;3.00;92.50
40670;DHT22;26355;45.528;9.234;2023-02-11T03:41:13;6.50;93.30
40670;DHT22;26355;45.528;9.234;2023-02-11T03:43:41;4.60;92.70
40670;DHT22;26355;45.528;9.234;2023-02-11T03:46:08;3.30;92.20
40670;DHT22;26355;45.528;9.234;2023-02-11T03:48:38;6.80;92.80
40670;DHT22;26355;45.528;9.234;2023-02-11T03:51:06;3.80;92.10
40670;DHT22;26355;45.528;9.234;2023-02-11T03:53:32;6.10;92.90
40670;DHT22;26355;45.528;9.234;2023-02-11T03:55:59;3.30;92.10
40670;DHT22;26355;45.528;9.234;2023-02-11T03:58:25;5.30;92.40
40670;DHT22;26355;45.528;9.234;2023-02-11T04:00:50;5.60;92.80
40670;DHT22;26355;45.528;9.234;2023-02-11T04:03:16;4.20;92.50
40670;DHT22;26355;45.528;9.234;2023-02-11T04:05:41;5.00;92.70
40670;DHT22;26355;45.528;9.234;2023-02-11T04:08:07;4.20;92.40
40670;DHT22;26355;45.528;9.234;2023-02-11T04:10:33;6.20;92.70
40670;DHT22;26355;45.528;9.234;2023-02-11T04:12:58;3.60;91.90
40670;DHT22;26355;45.528;9.234;2023-02-11T04:15:24;5.30;92.30
40670;DHT22;26355;45.528;9.234;2023-02-11T04:17:49;5.80;93.10
40670;DHT22;26355;45.528;9.234;2023-02-11T04:20:15;4.60;93.10
40670;DHT22;26355;45.528;9.234;2023-02-11T04:25:07;5.50;93.60
40670;DHT22;26355;45.528;9.234;2023-02-11T04:27:33;4.80;94.30
40670;DHT22;26355;45.528;9.234;2023-02-11T04:29:59;4.90;94.70
40670;DHT22;26355;45.528;9.234;2023-02-11T04:32:24;5.80;94.70
40670;DHT22;26355;45.528;9.234;2023-02-11T04:37:16;4.10;94.00
40670;DHT22;26355;45.528;9.234;2023-02-11T04:39:41;4.70;93.60
40670;DHT22;26355;45.528;9.234;2023-02-11T04:42:07;3.30;93.30
40670;DHT22;26355;45.528;9.234;2023-02-11T04:44:32;5.20;93.70
40670;DHT22;26355;45.528;9.234;2023-02-11T04:46:58;5.20;93.80
40670;DHT22;26355;45.528;9.234;2023-02-11T04:49:23;4.10;93.40
40670;DHT22;26355;45.528;9.234;2023-02-11T04:51:49;5.40;93.90
40670;DHT22;26355;45.528;9.234;2023-02-11T04:54:14;3.60;93.30
40670;DHT22;26355;45.528;9.234;2023-02-11T04:56:40;4.40;93.60
40670;DHT22;26355;45.528;9.234;2023-02-11T04:59:06;5.30;94.00
40670;DHT22;26355;45.528;9.234;2023-02-11T05:01:32;4.80;94.10
40670;DHT22;26355;45.528;9.234;2023-02-11T05:03:57;5.90;94.00
40670;DHT22;26355;45.528;9.234;2023-02-11T05:06:23;3.70;93.60
40670;DHT22;26355;45.528;9.234;2023-02-11T05:08:48;4.00;93.00
40670;DHT22;26355;45.528;9.234;2023-02-11T05:11:15;4.80;93.10
40670;DHT22;26355;45.528;9.234;2023-02-11T05:16:07;4.90;93.50
40670;DHT22;26355;45.528;9.234;2023-02-11T05:18:32;6.90;94.10
40670;DHT22;26355;45.528;9.234;2023-02-11T05:20:57;3.40;93.30
40670;DHT22;26355;45.528;9.234;2023-02-11T05:23:23;3.80;93.20
40670;DHT22;26355;45.528;9.234;2023-02-11T05:25:48;5.10;93.70
40670;DHT22;26355;45.528;9.234;2023-02-11T05:28:14;3.70;93.70
40670;DHT22;26355;45.528;9.234;2023-02-11T05:30:40;5.80;94.40
40670;DHT22;26355;45.528;9.234;2023-02-11T05:33:05;4.80;93.80
40670;DHT22;26355;45.528;9.234;2023-02-11T05:35:31;5.20;94.10
40670;DHT22;26355;45.528;9.234;2023-02-11T05:37:56;3.70;94.00
40670;DHT22;26355;45.528;9.234;2023-02-11T05:40:22;7.00;94.80
40670;DHT22;26355;45.528;9.234;2023-02-11T05:42:47;6.90;94.40
40670;DHT22;26355;45.528;9.234;2023-02-11T05:45:12;4.90;94.10
40670;DHT22;26355;45.528;9.234;2023-02-11T05:47:38;4.10;94.00
40670;DHT22;26355;45.528;9.234;2023-02-11T05:50:03;5.00;93.70
40670;DHT22;26355;45.528;9.234;2023-02-11T05:52:29;7.30;94.40
40670;DHT22;26355;45.528;9.234;2023-02-11T05:54:54;4.80;93.80
40670;DHT22;26355;45.528;9.234;2023-02-11T05:57:20;4.00;93.60
40670;DHT22;26355;45.528;9.234;2023-02-11T05:59:45;4.40;93.90
40670;DHT22;26355;45.528;9.234;2023-02-11T06:02:11;7.00;94.10
40670;DHT22;26355;45.528;9.234;2023-02-11T06:04:36;5.60;93.60
40670;DHT22;26355;45.528;9.234;2023-02-11T06:07:02;6.80;94.10
40670;DHT22;26355;45.528;9.234;2023-02-11T06:09:28;5.50;93.70
40670;DHT22;26355;45.528;9.234;2023-02-11T06:11:53;4.90;93.20
40670;DHT22;26355;45.528;9.234;2023-02-11T06:14:19;5.50;93.60
40670;DHT22;26355;45.528;9.234;2023-02-11T06:16:44;6.60;93.70
40670;DHT22;26355;45.528;9.234;2023-02-11T06:19:10;4.50;93.40
40670;DHT22;26355;45.528;9.234;2023-02-11T06:21:36;5.00;93.70
40670;DHT22;26355;45.528;9.234;2023-02-11T06:24:01;4.50;93.60
40670;DHT22;26355;45.528;9.234;2023-02-11T06:26:27;5.10;93.90
40670;DHT22;26355;45.528;9.234;2023-02-11T06:28:52;6.10;94.10
40670;DHT22;26355;45.528;9.234;2023-02-11T06:31:18;6.90;94.20
40670;DHT22;26355;45.528;9.234;2023-02-11T06:33:43;4.30;93.40
40670;DHT22;26355;45.528;9.234;2023-02-11T06:36:10;6.00;93.80
40670;DHT22;26355;45.528;9.234;2023-02-11T06:38:36;4.80;93.60
40670;DHT22;26355;45.528;9.234;2023-02-11T06:41:02;5.90;93.90
40670;DHT22;26355;45.528;9.234;2023-02-11T06:43:27;5.00;93.60
40670;DHT22;26355;45.528;9.234;2023-02-11T06:45:53;5.00;93.80
40670;DHT22;26355;45.528;9.234;2023-02-11T06:48:19;5.60;94.30
40670;DHT22;26355;45.528;9.234;2023-02-11T06:50:45;4.50;93.90
40670;DHT22;26355;45.528;9.234;2023-02-11T06:53:11;5.90;94.30
40670;DHT22;26355;45.528;9.234;2023-02-11T06:55:36;8.90;95.30
40670;DHT22;26355;45.528;9.234;2023-02-11T06:58:01;5.10;94.00
40670;DHT22;26355;45.528;9.234;2023-02-11T07:00:27;6.30;94.40
40670;DHT22;26355;45.528;9.234;2023-02-11T07:02:53;6.00;94.30
40670;DHT22;26355;45.528;9.234;2023-02-11T07:05:18;5.70;94.20
40670;DHT22;26355;45.528;9.234;2023-02-11T07:07:44;4.90;93.80
40670;DHT22;26355;45.528;9.234;2023-02-11T07:10:09;6.00;94.40
40670;DHT22;26355;45.528;9.234;2023-02-11T07:12:35;6.40;93.90
40670;DHT22;26355;45.528;9.234;2023-02-11T07:15:01;7.00;93.80
40670;DHT22;26355;45.528;9.234;2023-02-11T07:17:26;6.40;93.60
40670;DHT22;26355;45.528;9.234;2023-02-11T07:19:52;7.20;93.50
40670;DHT22;26355;45.528;9.234;2023-02-11T07:22:17;6.70;92.90
40670;DHT22;26355;45.528;9.234;2023-02-11T07:24:43;6.40;92.40
40670;DHT22;26355;45.528;9.234;2023-02-11T07:27:08;7.70;91.50
40670;DHT22;26355;45.528;9.234;2023-02-11T07:29:34;8.70;91.00
40670;DHT22;26355;45.528;9.234;2023-02-11T07:32:00;9.90;90.40
40670;DHT22;26355;45.528;9.234;2023-02-11T07:34:25;10.20;89.40
40670;DHT22;26355;45.528;9.234;2023-02-11T07:36:50;10.30;88.60
40670;DHT22;26355;45.528;9.234;2023-02-11T07:39:16;9.30;87.60
40670;DHT22;26355;45.528;9.234;2023-02-11T07:41:41;9.20;87.70
40670;DHT22;26355;45.528;9.234;2023-02-11T07:44:08;11.10;86.90
40670;DHT22;26355;45.528;9.234;2023-02-11T07:46:34;7.80;84.30
40670;DHT22;26355;45.528;9.234;2023-02-11T07:48:59;11.40;86.60
40670;DHT22;26355;45.528;9.234;2023-02-11T07:51:26;11.40;84.50
40670;DHT22;26355;45.528;9.234;2023-02-11T07:53:52;10.70;83.30
40670;DHT22;26355;45.528;9.234;2023-02-11T07:56:18;12.60;84.50
40670;DHT22;26355;45.528;9.234;2023-02-11T07:58:44;12.20;82.10
40670;DHT22;26355;45.528;9.234;2023-02-11T08:01:14;11.50;81.50
40670;DHT22;26355;45.528;9.234;2023-02-11T08:03:40;11.00;78.50
40670;DHT22;26355;45.528;9.234;2023-02-11T08:06:11;14.50;81.00
40670;DHT22;26355;45.528;9.234;2023-02-11T08:08:37;13.20;79.80
40670;DHT22;26355;45.528;9.234;2023-02-11T08:11:07;13.20;79.00
40670;DHT22;26355;45.528;9.234;2023-02-11T08:13:32;11.20;77.70
40670;DHT22;26355;45.528;9.234;2023-02-11T08:15:58;13.10;78.40
40670;DHT22;26355;45.528;9.234;2023-02-11T08:18:24;11.60;77.70
40670;DHT22;26355;45.528;9.234;2023-02-11T08:20:49;11.50;77.30
40670;DHT22;26355;45.528;9.234;2023-02-11T08:23:15;13.40;78.60
40670;DHT22;26355;45.528;9.234;2023-02-11T08:25:40;13.30;77.80
40670;DHT22;26355;45.528;9.234;2023-02-11T08:28:05;13.40;77.80
40670;DHT22;26355;45.528;9.234;2023-02-11T08:30:33;12.70;77.00
40670;DHT22;26355;45.528;9.234;2023-02-11T08:32:59;12.00;76.10
40670;DHT22;26355;45.528;9.234;2023-02-11T08:35:24;11.30;76.80
40670;DHT22;26355;45.528;9.234;2023-02-11T08:37:50;11.80;77.40
40670;DHT22;26355;45.528;9.234;2023-02-11T08:40:16;12.20;78.20
40670;DHT22;26355;45.528;9.234;2023-02-11T08:42:41;11.70;78.50
40670;DHT22;26355;45.528;9.234;2023-02-11T08:45:07;10.00;78.50
40670;DHT22;26355;45.528;9.234;2023-02-11T08:47:32;10.80;79.40
40670;DHT22;26355;45.528;9.234;2023-02-11T08:49:58;10.00;79.00
40670;DHT22;26355;45.528;9.234;2023-02-11T08:52:23;10.00;78.90
40670;DHT22;26355;45.528;9.234;2023-02-11T08:54:49;10.90;80.00
40670;DHT22;26355;45.528;9.234;2023-02-11T08:57:15;12.60;80.40
40670;DHT22;26355;45.528;9.234;2023-02-11T08:59:40;11.60;80.10
40670;DHT22;26355;45.528;9.234;2023-02-11T09:02:08;11.30;79.80
40670;DHT22;26355;45.528;9.234;2023-02-11T09:04:34;12.20;80.20
40670;DHT22;26355;45.528;9.234;2023-02-11T09:07:00;11.20;78.90
40670;DHT22;26355;45.528;9.234;2023-02-11T09:09:25;11.10;78.50
40670;DHT22;26355;45.528;9.234;2023-02-11T09:11:51;11.50;78.80
40670;DHT22;26355;45.528;9.234;2023-02-11T09:14:22;11.50;78.30
40670;DHT22;26355;45.528;9.234;2023-02-11T09:16:48;12.30;78.80
40670;DHT22;26355;45.528;9.234;2023-02-11T09:19:14;11.10;77.70
40670;DHT22;26355;45.528;9.234;2023-02-11T09:21:39;10.90;77.30
40670;DHT22;26355;45.528;9.234;2023-02-11T09:24:05;11.50;77.50
40670;DHT22;26355;45.528;9.234;2023-02-11T09:26:31;13.00;77.90
40670;DHT22;26355;45.528;9.234;2023-02-11T09:28:57;12.80;77.50
40670;DHT22;26355;45.528;9.234;2023-02-11T09:31:24;12.00;77.20
40670;DHT22;26355;45.528;9.234;2023-02-11T09:33:50;12.90;78.00
40670;DHT22;26355;45.528;9.234;2023-02-11T09:36:20;11.60;76.90
40670;DHT22;26355;45.528;9.234;2023-02-11T09:38:46;11.20;76.80
40670;DHT22;26355;45.528;9.234;2023-02-11T09:43:58;11.50;76.10
40670;DHT22;26355;45.528;9.234;2023-02-11T09:46:25;11.10;76.00
40670;DHT22;26355;45.528;9.234;2023-02-11T09:48:52;10.70;76.20
40670;DHT22;26355;45.528;9.234;2023-02-11T09:51:34;10.50;76.30
40670;DHT22;26355;45.528;9.234;2023-02-11T09:54:02;11.20;77.20
40670;DHT22;26355;45.528;9.234;2023-02-11T09:56:29;13.00;78.40
40670;DHT22;26355;45.528;9.234;2023-02-11T09:58:55;11.90;78.00
40670;DHT22;26355;45.528;9.234;2023-02-11T10:03:58;12.00;77.30
40670;DHT22;26355;45.528;9.234;2023-02-11T10:22:18;13.30;73.10
40670;DHT22;26355;45.528;9.234;2023-02-11T10:24:49;14.00;72.90
40670;DHT22;26355;45.528;9.234;2023-02-11T10:27:16;13.70;71.80
40670;DHT22;26355;45.528;9.234;2023-02-11T10:29:48;13.80;71.70
40670;DHT22;26355;45.528;9.234;2023-02-11T10:34:46;14.10;70.40
40670;DHT22;26355;45.528;9.234;2023-02-11T10:37:12;14.20;69.70
40670;DHT22;26355;45.528;9.234;2023-02-11T10:39:39;14.40;69.80
40670;DHT22;26355;45.528;9.234;2023-02-11T10:42:06;14.30;67.80
40670;DHT22;26355;45.528;9.234;2023-02-11T10:44:37;14.50;67.40
40670;DHT22;26355;45.528;9.234;2023-02-11T10:47:04;14.50;67.80
40670;DHT22;26355;45.528;9.234;2023-02-11T10:49:34;14.60;67.40
40670;DHT22;26355;45.528;9.234;2023-02-11T10:57:41;15.00;67.80
40670;DHT22;26355;45.528;9.234;2023-02-11T11:00:19;15.00;65.80
40670;DHT22;26355;45.528;9.234;2023-02-11T11:02:51;14.90;65.70
40670;DHT22;26355;45.528;9.234;2023-02-11T11:05:18;15.00;65.80
40670;DHT22;26355;45.528;9.234;2023-02-11T11:07:55;14.90;65.10
40670;DHT22;26355;45.528;9.234;2023-02-11T11:10:29;15.10;65.10
40670;DHT22;26355;45.528;9.234;2023-02-11T11:12:55;16.10;64.30
40670;DHT22;26355;45.528;9.234;2023-02-11T11:15:22;16.70;63.10
40670;DHT22;26355;45.528;9.234;2023-02-11T11:17:48;16.70;63.10
40670;DHT22;26355;45.528;9.234;2023-02-11T11:20:17;16.90;62.30
40670;DHT22;26355;45.528;9.234;2023-02-11T11:22:43;17.60;62.10
40670;DHT22;26355;45.528;9.234;2023-02-11T11:25:25;17.60;61.40
40670;DHT22;26355;45.528;9.234;2023-02-11T11:27:53;17.40;61.30
40670;DHT22;26355;45.528;9.234;2023-02-11T11:30:18;16.70;61.30
40670;DHT22;26355;45.528;9.234;2023-02-11T11:32:44;16.40;62.80
40670;DHT22;26355;45.528;9.234;2023-02-11T11:35:23;16.40;63.20
40670;DHT22;26355;45.528;9.234;2023-02-11T11:37:54;16.20;62.90
40670;DHT22;26355;45.528;9.234;2023-02-11T11:40:23;16.30;63.40
40670;DHT22;26355;45.528;9.234;2023-02-11T11:45:33;16.40;63.50
40670;DHT22;26355;45.528;9.234;2023-02-11T11:48:03;16.20;63.50
40670;DHT22;26355;45.528;9.234;2023-02-11T11:50:35;16.20;64.60
40670;DHT22;26355;45.528;9.234;2023-02-11T11:53:03;16.10;64.30
40670;DHT22;26355;45.528;9.234;2023-02-11T11:57:54;16.00;64.40
40670;DHT22;26355;45.528;9.234;2023-02-11T12:00:34;15.80;65.00
40670;DHT22;26355;45.528;9.234;2023-02-11T12:03:08;15.50;65.00
40670;DHT22;26355;45.528;9.234;2023-02-11T12:08:17;15.10;66.30
40670;DHT22;26355;45.528;9.234;2023-02-11T12:26:00;15.80;67.10
40670;DHT22;26355;45.528;9.234;2023-02-11T12:31:02;15.60;67.30
40670;DHT22;26355;45.528;9.234;2023-02-11T12:44:08;15.30;68.00
40670;DHT22;26355;45.528;9.234;2023-02-11T12:46:45;15.30;67.50
40670;DHT22;26355;45.528;9.234;2023-02-11T12:49:35;15.20;68.20
40670;DHT22;26355;45.528;9.234;2023-02-11T12:54:37;15.00;67.20
40670;DHT22;26355;45.528;9.234;2023-02-11T13:07:47;14.80;67.50
40670;DHT22;26355;45.528;9.234;2023-02-11T13:10:25;14.70;67.20
40670;DHT22;26355;45.528;9.234;2023-02-11T13:12:52;14.60;67.20
40670;DHT22;26355;45.528;9.234;2023-02-11T13:15:37;14.70;67.90
40670;DHT22;26355;45.528;9.234;2023-02-11T13:20:42;14.40;66.10
40670;DHT22;26355;45.528;9.234;2023-02-11T13:25:39;14.40;65.50
40670;DHT22;26355;45.528;9.234;2023-02-11T13:30:51;14.40;66.20
40670;DHT22;26355;45.528;9.234;2023-02-11T13:33:29;14.40;66.20
40670;DHT22;26355;45.528;9.234;2023-02-11T13:38:26;14.50;65.20
40670;DHT22;26355;45.528;9.234;2023-02-11T13:41:05;14.40;65.20
40670;DHT22;26355;45.528;9.234;2023-02-11T13:43:32;14.50;65.50
40670;DHT22;26355;45.528;9.234;2023-02-11T13:45:58;14.30;65.10
40670;DHT22;26355;45.528;9.234;2023-02-11T13:48:28;14.50;65.70
40670;DHT22;26355;45.528;9.234;2023-02-11T13:50:59;14.50;65.80
40670;DHT22;26355;45.528;9.234;2023-02-11T13:53:26;14.40;65.50
40670;DHT22;26355;45.528;9.234;2023-02-11T13:55:53;15.50;65.20
40670;DHT22;26355;45.528;9.234;2023-02-11T14:00:54;14.60;65.30
40670;DHT22;26355;45.528;9.234;2023-02-11T14:03:21;14.50;65.80
40670;DHT22;26355;45.528;9.234;2023-02-11T14:16:34;14.50;65.90
40670;DHT22;26355;45.528;9.234;2023-02-11T14:18:59;15.00;63.90
40670;DHT22;26355;45.528;9.234;2023-02-11T14:31:43;14.30;62.70
40670;DHT22;26355;45.528;9.234;2023-02-11T14:42:28;14.30;62.30
40670;DHT22;26355;45.528;9.234;2023-02-11T14:44:55;14.20;61.90
40670;DHT22;26355;45.528;9.234;2023-02-11T14:47:22;14.20;61.70
40670;DHT22;26355;45.528;9.234;2023-02-11T14:49:50;14.30;62.20
40670;DHT22;26355;45.528;9.234;2023-02-11T14:52:23;14.10;62.00
40670;DHT22;26355;45.528;9.234;2023-02-11T14:54:50;14.20;62.10
40670;DHT22;26355;45.528;9.234;2023-02-11T14:57:16;14.40;62.70
40670;DHT22;26355;45.528;9.234;2023-02-11T14:59:53;14.10;62.10
40670;DHT22;26355;45.528;9.234;2023-02-11T15:02:22;14.10;61.90
40670;DHT22;26355;45.528;9.234;2023-02-11T15:04:50;13.90;62.20
40670;DHT22;26355;45.528;9.234;2023-02-11T15:07:15;14.10;63.00
40670;DHT22;26355;45.528;9.234;2023-02-11T15:09:43;14.10;62.90
40670;DHT22;26355;45.528;9.234;2023-02-11T15:12:14;14.40;63.10
40670;DHT22;26355;45.528;9.234;2023-02-11T15:14:43;14.10;62.10
40670;DHT22;26355;45.528;9.234;2023-02-11T15:17:11;14.80;62.30
40670;DHT22;26355;45.528;9.234;2023-02-11T15:19:38;14.30;61.20
40670;DHT22;26355;45.528;9.234;2023-02-11T15:22:06;14.20;60.90
40670;DHT22;26355;45.528;9.234;2023-02-11T15:24:34;14.30;60.60
40670;DHT22;26355;45.528;9.234;2023-02-11T15:29:41;14.30;60.50
40670;DHT22;26355;45.528;9.234;2023-02-11T15:34:33;14.20;60.60
40670;DHT22;26355;45.528;9.234;2023-02-11T15:36:59;14.20;60.90
40670;DHT22;26355;45.528;9.234;2023-02-11T15:39:28;14.30;61.00
40670;DHT22;26355;45.528;9.234;2023-02-11T15:41:55;14.20;60.60
40670;DHT22;26355;45.528;9.234;2023-02-11T15:44:31;14.00;60.40
40670;DHT22;26355;45.528;9.234;2023-02-11T15:46:57;13.90;60.30
40670;DHT22;26355;45.528;9.234;2023-02-11T15:49:23;14.00;61.00
40670;DHT22;26355;45.528;9.234;2023-02-11T15:51:49;14.90;61.40
40670;DHT22;26355;45.528;9.234;2023-02-11T15:54:15;13.90;61.00
40670;DHT22;26355;45.528;9.234;2023-02-11T15:56:42;13.80;60.70
40670;DHT22;26355;45.528;9.234;2023-02-11T15:59:18;13.60;61.30
40670;DHT22;26355;45.528;9.234;2023-02-11T16:01:45;13.70;61.60
40670;DHT22;26355;45.528;9.234;2023-02-11T16:04:15;13.50;61.40
40670;DHT22;26355;45.528;9.234;2023-02-11T16:06:41;13.60;61.70
40670;DHT22;26355;45.528;9.234;2023-02-11T16:11:35;13.60;62.00
40670;DHT22;26355;45.528;9.234;2023-02-11T16:14:18;13.50;62.10
40670;DHT22;26355;45.528;9.234;2023-02-11T16:16:45;13.20;62.20
40670;DHT22;26355;45.528;9.234;2023-02-11T16:19:14;13.30;62.60
40670;DHT22;26355;45.528;9.234;2023-02-11T16:21:42;13.30;62.90
40670;DHT22;26355;45.528;9.234;2023-02-11T16:24:19;13.70;63.00
40670;DHT22;26355;45.528;9.234;2023-02-11T16:26:48;13.20;63.10
40670;DHT22;26355;45.528;9.234;2023-02-11T16:31:41;13.00;63.40
40670;DHT22;26355;45.528;9.234;2023-02-11T16:34:10;13.10;63.70
40670;DHT22;26355;45.528;9.234;2023-02-11T16:36:36;12.90;64.10
40670;DHT22;26355;45.528;9.234;2023-02-11T16:39:01;13.00;64.10
40670;DHT22;26355;45.528;9.234;2023-02-11T16:41:27;12.90;64.20
40670;DHT22;26355;45.528;9.234;2023-02-11T16:43:55;12.90;64.40
40670;DHT22;26355;45.528;9.234;2023-02-11T16:46:21;12.80;64.70
40670;DHT22;26355;45.528;9.234;2023-02-11T16:48:46;12.70;64.80
40670;DHT22;26355;45.528;9.234;2023-02-11T16:51:11;12.80;64.90
40670;DHT22;26355;45.528;9.234;2023-02-11T16:53:37;13.40;65.40
40670;DHT22;26355;45.528;9.234;2023-02-11T16:56:03;12.70;65.50
40670;DHT22;26355;45.528;9.234;2023-02-11T16:58:28;12.60;65.60
40670;DHT22;26355;45.528;9.234;2023-02-11T17:00:54;12.90;65.70
40670;DHT22;26355;45.528;9.234;2023-02-11T17:03:22;12.50;65.70
40670;DHT22;26355;45.528;9.234;2023-02-11T17:05:48;12.50;65.90
40670;DHT22;26355;45.528;9.234;2023-02-11T17:08:14;13.10;66.60
40670;DHT22;26355;45.528;9.234;2023-02-11T17:10:40;12.40;66.50
40670;DHT22;26355;45.528;9.234;2023-02-11T17:13:06;12.40;66.70
40670;DHT22;26355;45.528;9.234;2023-02-11T17:15:31;12.30;66.90
40670;DHT22;26355;45.528;9.234;2023-02-11T17:17:57;12.30;67.00
40670;DHT22;26355;45.528;9.234;2023-02-11T17:20:23;12.30;67.20
40670;DHT22;26355;45.528;9.234;2023-02-11T17:22:49;12.20;67.40
40670;DHT22;26355;45.528;9.234;2023-02-11T17:25:15;12.20;67.60
40670;DHT22;26355;45.528;9.234;2023-02-11T17:27:40;12.10;67.50
40670;DHT22;26355;45.528;9.234;2023-02-11T17:30:06;12.30;67.70
40670;DHT22;26355;45.528;9.234;2023-02-11T17:32:32;12.10;67.70
40670;DHT22;26355;45.528;9.234;2023-02-11T17:34:57;12.10;67.90
40670;DHT22;26355;45.528;9.234;2023-02-11T17:37:23;12.10;67.90
40670;DHT22;26355;45.528;9.234;2023-02-11T17:39:48;12.10;67.90
40670;DHT22;26355;45.528;9.234;2023-02-11T17:42:15;12.40;68.10
40670;DHT22;26355;45.528;9.234;2023-02-11T17:44:41;13.30;68.50
40670;DHT22;26355;45.528;9.234;2023-02-11T17:47:07;12.80;68.40
40670;DHT22;26355;45.528;9.234;2023-02-11T17:49:32;12.40;68.40
40670;DHT22;26355;45.528;9.234;2023-02-11T17:51:58;12.40;68.60
40670;DHT22;26355;45.528;9.234;2023-02-11T17:54:23;12.60;68.70
40670;DHT22;26355;45.528;9.234;2023-02-11T17:56:49;13.10;68.90
40670;DHT22;26355;45.528;9.234;2023-02-11T17:59:15;12.30;68.30
40670;DHT22;26355;45.528;9.234;2023-02-11T18:01:41;13.50;69.00
40670;DHT22;26355;45.528;9.234;2023-02-11T18:04:07;12.40;68.40
40670;DHT22;26355;45.528;9.234;2023-02-11T18:06:34;12.30;68.60
40670;DHT22;26355;45.528;9.234;2023-02-11T18:09:00;13.00;69.10
40670;DHT22;26355;45.528;9.234;2023-02-11T18:11:29;12.40;69.10
40670;DHT22;26355;45.528;9.234;2023-02-11T18:13:55;13.80;70.10
40670;DHT22;26355;45.528;9.234;2023-02-11T18:16:21;12.40;69.40
40670;DHT22;26355;45.528;9.234;2023-02-11T18:18:46;12.90;69.50
40670;DHT22;26355;45.528;9.234;2023-02-11T18:21:12;12.30;69.30
40670;DHT22;26355;45.528;9.234;2023-02-11T18:23:38;12.40;69.60
40670;DHT22;26355;45.528;9.234;2023-02-11T18:26:06;12.70;70.10
40670;DHT22;26355;45.528;9.234;2023-02-11T18:28:31;12.00;69.80
40670;DHT22;26355;45.528;9.234;2023-02-11T18:30:57;12.00;69.80
40670;DHT22;26355;45.528;9.234;2023-02-11T18:33:23;11.90;69.90
40670;DHT22;26355;45.528;9.234;2023-02-11T18:35:48;11.80;70.00
40670;DHT22;26355;45.528;9.234;2023-02-11T18:38:14;11.80;70.20
40670;DHT22;26355;45.528;9.234;2023-02-11T18:40:39;11.70;70.30